Maersk Bali — 9V7499 — position and weather

sailwx.info

Track history (hours):
 
Tides and Currents Weather Stations Pressure Air Temp Water Temp Dewpoint Dewpoint Depression Visibility Wind Speed Wind Dir Waves Ship Positions

Maersk Bali

Last reported at 2015-May-20 23:23 UTC. Time now 2015-May-30 18:40 UTC.
Position N 35°55' W 009°41'.
Warning: this ship's position is 9 days out of date.

Length 223 m; draft 9.8 m.

Type: Cargo ship. MMSI: 563102000.

Date/timePositionNaut miles runAvg speedWind from/ knotsBaromVisibWave heightAir tempDewpointWater temp
2015-May-20 23:23N 35°55' W 009°41'20210.2
2015-May-20 03:34N 35°59' W 005°31'8 8.0
2015-May-20 02:33N 36°03' W 005°23'5 2.6
2015-May-20 00:31N 36°08' W 005°26'0 0.0
2015-May-19 23:31N 36°08' W 005°26'0 0.0
2015-May-19 22:31N 36°08' W 005°26'0 0.0
2015-May-19 21:31N 36°08' W 005°26'0 0.0
2015-May-19 20:31N 36°08' W 005°26'0 0.0
2015-May-19 19:25N 36°08' W 005°26'0 0.0
2015-May-19 18:31N 36°08' W 005°26'0 0.0
2015-May-19 17:31N 36°08' W 005°26'0 0.0
2015-May-19 16:31N 36°08' W 005°26'0 0.0
2015-May-19 15:31N 36°08' W 005°26'0 0.0
2015-May-19 14:10N 36°08' W 005°26'0 0.0
2015-May-19 12:28N 36°08' W 005°26'0 0.0
2015-May-19 11:25N 36°08' W 005°26'0 0.0
2015-May-19 10:31N 36°08' W 005°26'0 0.0
2015-May-19 09:31N 36°08' W 005°26'0 0.0
2015-May-19 08:28N 36°08' W 005°26'0 0.0
2015-May-19 07:07N 36°08' W 005°26'0 0.0
2015-May-19 06:25N 36°08' W 005°26'0 0.0
2015-May-19 05:25N 36°08' W 005°26'0 0.0
2015-May-19 04:31N 36°08' W 005°26'0 0.0
2015-May-19 03:19N 36°08' W 005°26'0 0.0
2015-May-19 02:25N 36°08' W 005°26'0 0.0
2015-May-19 01:19N 36°08' W 005°26'1 0.9
2015-May-19 00:30N 36°09' W 005°26'5 4.8
2015-May-18 23:33N 36°05' W 005°22'2 1.8
2015-May-18 22:33N 36°04' W 005°20'1 0.9
2015-May-18 21:33N 36°05' W 005°20'10 8.0
2015-May-18 20:19N 36°06' W 005°07'11312.5
2015-May-18 11:18N 36°21' W 002°49'1012.7
2015-May-18 10:33N 36°23' W 002°37'1312.6
2015-May-18 09:33N 36°24' W 002°22'1212.4
2015-May-18 08:33N 36°27' W 002°07'1312.5
2015-May-18 07:29N 36°29' W 001°50'9112.5
2015-May-18 00:12N 36°45' E 000°01'812.2
2015-May-17 23:33N 36°46' E 000°11'1312.5
2015-May-17 22:33N 36°48' E 000°26'1312.5
2015-May-17 21:33N 36°50' E 000°42'1212.3
2015-May-17 20:33N 36°53' E 000°57'1212.0
2015-May-17 19:33N 36°55' E 001°12'1511.7
2015-May-17 18:18N 36°57' E 001°30'4110.8
2015-May-17 14:31N 37°04' E 002°20'1410.8
2015-May-17 13:16N 37°07' E 002°37'3210.6
2015-May-17 10:12N 37°11' E 003°17'416 9.7
2015-May-15 15:20N 37°06' E 011°58'911.6
2015-May-15 14:33N 37°01' E 012°08'1111.4
2015-May-15 13:33N 36°58' E 012°22'1211.5
2015-May-15 12:34N 36°55' E 012°36'1211.6
2015-May-15 11:33N 36°52' E 012°49'1111.5
2015-May-15 10:34N 36°49' E 013°03'1111.4
2015-May-15 09:34N 36°45' E 013°17'1111.0
2015-May-15 08:33N 36°42' E 013°30'1111.0
2015-May-15 07:33N 36°39' E 013°43'1110.6
2015-May-15 06:33N 36°36' E 013°56'1110.9
2015-May-15 05:33N 36°32' E 014°08'1111.3
2015-May-15 04:33N 36°29' E 014°22'1111.2
2015-May-15 03:33N 36°25' E 014°35'1111.0
2015-May-15 02:34N 36°23' E 014°48'1111.1
2015-May-15 01:33N 36°20' E 015°02'1111.3
2015-May-15 00:33N 36°20' E 015°16'1111.3
2015-May-14 23:33N 36°20' E 015°30'1111.1
2015-May-14 22:33N 36°21' E 015°44'416 9.6
2015-May-13 03:27N 37°43' E 024°14'1212.3
2015-May-13 02:30N 37°50' E 024°26'  
Track history (hours):
 
Tides and Currents Weather Stations Pressure Air Temp Water Temp Dewpoint Dewpoint Depression Visibility Wind Speed Wind Dir Waves Ship Positions

Maersk Bali

Last reported at 2015-May-20 23:23 UTC. Time now 2015-May-30 18:40 UTC.
Position N 35°55' W 009°41'.
Warning: this ship's position is 9 days out of date.

Length 223 m; draft 9.8 m.

Type: Cargo ship. MMSI: 563102000.

Date/timePositionNaut miles runAvg speedWind from/ knotsBaromVisibWave heightAir tempDewpointWater temp
2015-May-20 23:23N 35°55' W 009°41'20210.2
2015-May-20 03:34N 35°59' W 005°31'8 8.0
2015-May-20 02:33N 36°03' W 005°23'5 2.6
2015-May-20 00:31N 36°08' W 005°26'0 0.0
2015-May-19 23:31N 36°08' W 005°26'0 0.0
2015-May-19 22:31N 36°08' W 005°26'0 0.0
2015-May-19 21:31N 36°08' W 005°26'0 0.0
2015-May-19 20:31N 36°08' W 005°26'0 0.0
2015-May-19 19:25N 36°08' W 005°26'0 0.0
2015-May-19 18:31N 36°08' W 005°26'0 0.0
2015-May-19 17:31N 36°08' W 005°26'0 0.0
2015-May-19 16:31N 36°08' W 005°26'0 0.0
2015-May-19 15:31N 36°08' W 005°26'0 0.0
2015-May-19 14:10N 36°08' W 005°26'0 0.0
2015-May-19 12:28N 36°08' W 005°26'0 0.0
2015-May-19 11:25N 36°08' W 005°26'0 0.0
2015-May-19 10:31N 36°08' W 005°26'0 0.0
2015-May-19 09:31N 36°08' W 005°26'0 0.0
2015-May-19 08:28N 36°08' W 005°26'0 0.0
2015-May-19 07:07N 36°08' W 005°26'0 0.0
2015-May-19 06:25N 36°08' W 005°26'0 0.0
2015-May-19 05:25N 36°08' W 005°26'0 0.0
2015-May-19 04:31N 36°08' W 005°26'0 0.0
2015-May-19 03:19N 36°08' W 005°26'0 0.0
2015-May-19 02:25N 36°08' W 005°26'0 0.0
2015-May-19 01:19N 36°08' W 005°26'1 0.9
2015-May-19 00:30N 36°09' W 005°26'5 4.8
2015-May-18 23:33N 36°05' W 005°22'2 1.8
2015-May-18 22:33N 36°04' W 005°20'1 0.9
2015-May-18 21:33N 36°05' W 005°20'10 8.0
2015-May-18 20:19N 36°06' W 005°07'11312.5
2015-May-18 11:18N 36°21' W 002°49'1012.7
2015-May-18 10:33N 36°23' W 002°37'1312.6
2015-May-18 09:33N 36°24' W 002°22'1212.4
2015-May-18 08:33N 36°27' W 002°07'1312.5
2015-May-18 07:29N 36°29' W 001°50'9112.5
2015-May-18 00:12N 36°45' E 000°01'812.2
2015-May-17 23:33N 36°46' E 000°11'1312.5
2015-May-17 22:33N 36°48' E 000°26'1312.5
2015-May-17 21:33N 36°50' E 000°42'1212.3
2015-May-17 20:33N 36°53' E 000°57'1212.0
2015-May-17 19:33N 36°55' E 001°12'1511.7
2015-May-17 18:18N 36°57' E 001°30'4110.8
2015-May-17 14:31N 37°04' E 002°20'1410.8
2015-May-17 13:16N 37°07' E 002°37'3210.6
2015-May-17 10:12N 37°11' E 003°17'416 9.7
2015-May-15 15:20N 37°06' E 011°58'911.6
2015-May-15 14:33N 37°01' E 012°08'1111.4
2015-May-15 13:33N 36°58' E 012°22'1211.5
2015-May-15 12:34N 36°55' E 012°36'1211.6
2015-May-15 11:33N 36°52' E 012°49'1111.5
2015-May-15 10:34N 36°49' E 013°03'1111.4
2015-May-15 09:34N 36°45' E 013°17'1111.0
2015-May-15 08:33N 36°42' E 013°30'1111.0
2015-May-15 07:33N 36°39' E 013°43'1110.6
2015-May-15 06:33N 36°36' E 013°56'1110.9
2015-May-15 05:33N 36°32' E 014°08'1111.3
2015-May-15 04:33N 36°29' E 014°22'1111.2
2015-May-15 03:33N 36°25' E 014°35'1111.0
2015-May-15 02:34N 36°23' E 014°48'1111.1
2015-May-15 01:33N 36°20' E 015°02'1111.3
2015-May-15 00:33N 36°20' E 015°16'1111.3
2015-May-14 23:33N 36°20' E 015°30'1111.1
2015-May-14 22:33N 36°21' E 015°44'416 9.6
2015-May-13 03:27N 37°43' E 024°14'1212.3
2015-May-13 02:30N 37°50' E 024°26'  

Dump ship's entire track history